Time;durP1;ratioP1;P1;durP2;ratioP2;P2;SDS_P1;SDS_P2;PMS_P1;PMS_P2;Temp;Humidity;BMP_temperature;BMP_pressure;BME280_temperature;BME280_humidity;BME280_pressure;Samples;Min_cycle;Max_cycle;Signal;HPM_P1;HPM_P2
2022/02/03 00:00:20;;;;;;;4.50;2.03;;;3.60;99.90;;;;;;5095868;28;20437;-49
2022/02/03 00:02:56;;;;;;;7.93;2.47;;;3.40;99.90;;;;;;5095877;28;20605;-53
2022/02/03 00:05:33;;;;;;;2.33;1.20;;;3.30;99.90;;;;;;5096226;28;20470;-50
2022/02/03 00:08:11;;;;;;;1.77;1.03;;;3.30;99.90;;;;;;5096472;28;20621;-52
2022/02/03 00:11:02;;;;;;;9.00;1.80;;;3.20;99.90;;;;;;5096766;28;20437;-57
2022/02/03 00:22:06;;;;;;;3.93;2.03;;;3.20;99.90;;;;;;5095624;28;20472;-55
2022/02/03 00:24:49;;;;;;;2.37;2.17;;;3.20;99.90;;;;;;5095195;28;20478;-54
2022/02/03 00:27:36;;;;;;;4.30;1.30;;;3.20;99.90;;;;;;5095044;28;20496;-56
2022/02/03 00:30:08;;;;;;;3.73;0.90;;;3.30;99.90;;;;;;5094891;28;20497;-56
2022/02/03 00:33:09;;;;;;;5.07;1.40;;;3.30;99.90;;;;;;5095515;28;20463;-58
2022/02/03 00:35:53;;;;;;;5.43;1.10;;;3.30;99.90;;;;;;5095714;28;20431;-55
2022/02/03 00:38:29;;;;;;;4.30;2.00;;;3.40;99.90;;;;;;5095962;28;20494;-58
2022/02/03 00:49:21;;;;;;;4.33;1.00;;;3.30;99.90;;;;;;5094438;28;20485;-57
2022/02/03 00:51:50;;;;;;;3.43;1.30;;;3.30;99.90;;;;;;5095170;28;20439;-55
2022/02/03 00:54:21;;;;;;;8.53;1.47;;;3.30;99.90;;;;;;5095039;28;20474;-59
2022/02/03 00:56:53;;;;;;;1.90;1.37;;;3.30;99.90;;;;;;5095689;28;20451;-58
2022/02/03 00:59:29;;;;;;;5.67;1.50;;;3.20;99.90;;;;;;5096246;28;20443;-53
2022/02/03 01:01:59;;;;;;;3.87;2.40;;;3.20;99.90;;;;;;5095816;28;20449;-56
2022/02/03 01:04:29;;;;;;;2.63;0.93;;;3.10;99.90;;;;;;5094992;28;20460;-56
2022/02/03 01:06:58;;;;;;;8.60;2.50;;;3.10;99.90;;;;;;5095477;28;20504;-54
2022/02/03 01:09:32;;;;;;;4.50;1.10;;;3.10;99.90;;;;;;5094664;28;20490;-56
2022/02/03 01:12:10;;;;;;;12.00;2.80;;;3.10;99.90;;;;;;5095159;28;20541;-51
2022/02/03 01:14:46;;;;;;;5.13;1.23;;;3.20;99.90;;;;;;5094765;28;20461;-57
2022/02/03 01:17:27;;;;;;;11.50;2.87;;;3.10;99.90;;;;;;5095702;28;20462;-58
2022/02/03 01:37:10;;;;;;;3.33;1.33;;;3.20;99.90;;;;;;5093299;28;20431;-54
2022/02/03 01:45:23;;;;;;;12.87;3.17;;;3.20;99.90;;;;;;5097353;28;20512;-60
2022/02/03 01:53:22;;;;;;;3.67;1.20;;;3.40;99.90;;;;;;5096854;28;20387;-56
2022/02/03 01:56:01;;;;;;;33.13;3.17;;;3.50;99.90;;;;;;5096730;28;20463;-57
2022/02/03 01:58:34;;;;;;;3.43;1.93;;;3.50;99.90;;;;;;5095809;28;20427;-58
2022/02/03 02:01:06;;;;;;;7.90;1.60;;;3.50;99.90;;;;;;5096602;28;20508;-62
2022/02/03 02:03:39;;;;;;;12.60;2.47;;;3.50;99.90;;;;;;5096509;28;20419;-60
2022/02/03 02:06:21;;;;;;;2.87;1.63;;;3.60;99.90;;;;;;5096082;28;20436;-59
2022/02/03 02:09:05;;;;;;;5.17;2.07;;;3.60;99.90;;;;;;5095243;28;20478;-59
2022/02/03 02:11:59;;;;;;;5.87;1.77;;;3.60;99.90;;;;;;5095498;28;20418;-59
2022/02/03 02:36:51;;;;;;;8.67;1.87;;;3.70;99.90;;;;;;5074797;28;20442;-58
2022/02/03 02:37:19;;;;;;;3.37;1.13;;;3.70;99.90;;;;;;5095437;28;20475;-59
2022/02/03 02:43:00;;;;;;;3.70;1.80;;;3.80;99.90;;;;;;5090272;28;20427;-58
2022/02/03 02:45:38;;;;;;;23.10;1.77;;;3.70;99.90;;;;;;5095828;28;20462;-55
2022/02/03 02:48:18;;;;;;;1.57;1.17;;;3.80;99.90;;;;;;5095886;28;20423;-57
2022/02/03 02:50:56;;;;;;;4.40;1.90;;;3.70;99.90;;;;;;5095161;28;20453;-58
2022/02/03 02:53:38;;;;;;;25.17;3.13;;;3.80;99.90;;;;;;5094972;28;20499;-59
2022/02/03 02:56:19;;;;;;;8.73;1.67;;;3.80;99.90;;;;;;5094552;28;20945;-57
2022/02/03 02:59:21;;;;;;;13.70;2.00;;;3.80;99.90;;;;;;5095280;28;20435;-59
2022/02/03 03:02:17;;;;;;;11.50;1.77;;;3.80;99.90;;;;;;5094819;28;20450;-51
2022/02/03 03:30:08;;;;;;;2.30;1.37;;;4.00;99.90;;;;;;5097330;28;20509;-59
2022/02/03 03:33:03;;;;;;;5.13;1.20;;;3.90;99.90;;;;;;5099121;28;20461;-58
2022/02/03 03:35:41;;;;;;;9.30;1.97;;;3.90;99.90;;;;;;5098554;28;20470;-59
2022/02/03 03:38:10;;;;;;;6.93;1.70;;;3.90;99.90;;;;;;5099040;28;20426;-57
2022/02/03 03:40:42;;;;;;;5.13;1.10;;;3.80;99.90;;;;;;5098940;28;20490;-60
2022/02/03 03:43:11;;;;;;;3.33;1.13;;;3.90;99.90;;;;;;5099119;28;20423;-60
2022/02/03 03:45:46;;;;;;;2.93;1.20;;;3.80;99.90;;;;;;5098709;28;20443;-56
2022/02/03 03:48:18;;;;;;;3.93;1.27;;;3.80;99.90;;;;;;5098180;28;20461;-55
2022/02/03 03:50:51;;;;;;;5.43;1.90;;;3.80;99.90;;;;;;5097713;28;20493;-60
2022/02/03 03:53:27;;;;;;;7.73;1.30;;;3.80;99.90;;;;;;5098281;28;20476;-55
2022/02/03 03:56:07;;;;;;;6.03;1.90;;;3.90;99.90;;;;;;5098066;28;20474;-56
2022/02/03 03:59:05;;;;;;;10.57;1.40;;;3.90;99.90;;;;;;5097414;28;20515;-56
2022/02/03 04:31:05;;;;;;;4.83;2.00;;;4.00;99.90;;;;;;5098088;28;20474;-58
2022/02/03 04:34:04;;;;;;;4.30;1.33;;;4.00;99.90;;;;;;5098270;28;20454;-59
2022/02/03 04:43:11;;;;;;;13.43;1.73;;;4.00;99.90;;;;;;5093925;28;20462;-60
2022/02/03 05:00:51;;;;;;;7.00;1.27;;;4.00;99.90;;;;;;5097409;28;20457;-57
2022/02/03 05:03:59;;;;;;;3.00;2.20;;;4.10;99.90;;;;;;5097614;28;20534;-60
2022/02/03 05:06:48;;;;;;;5.33;1.00;;;4.10;99.90;;;;;;5096844;28;20485;-59
2022/02/03 05:09:36;;;;;;;4.17;1.17;;;4.10;99.90;;;;;;5096329;28;20475;-59
2022/02/03 05:12:27;;;;;;;8.13;1.40;;;4.10;99.90;;;;;;5096523;28;20510;-58
2022/02/03 05:15:42;;;;;;;5.07;1.73;;;4.10;99.90;;;;;;5097184;28;20553;-60
2022/02/03 05:18:52;;;;;;;11.03;1.80;;;4.20;99.90;;;;;;5097377;28;20439;-59
2022/02/03 05:22:17;;;;;;;8.23;1.60;;;4.10;99.90;;;;;;5096678;28;20467;-59
2022/02/03 05:46:34;;;;;;;6.57;1.50;;;4.00;99.90;;;;;;5093635;28;20434;-59
2022/02/03 05:49:43;;;;;;;4.90;1.50;;;4.00;99.90;;;;;;5095824;28;20481;-56
2022/02/03 05:52:34;;;;;;;8.03;1.73;;;4.00;99.90;;;;;;5094864;28;20439;-58
2022/02/03 06:01:07;;;;;;;2.90;1.00;;;4.00;99.90;;;;;;5095261;28;21010;-60
2022/02/03 06:04:03;;;;;;;6.00;2.83;;;4.00;99.90;;;;;;5094984;28;20465;-58
2022/02/03 06:06:48;;;;;;;7.20;2.10;;;4.00;99.90;;;;;;5075760;28;20471;-60
2022/02/03 06:09:26;;;;;;;4.60;2.17;;;4.00;99.90;;;;;;5075766;28;20916;-60
2022/02/03 06:14:40;;;;;;;4.70;1.73;;;4.10;99.90;;;;;;5070702;28;20437;-60
2022/02/03 06:17:28;;;;;;;5.00;1.73;;;4.10;99.90;;;;;;5075382;28;20471;-60
2022/02/03 06:22:44;;;;;;;6.80;1.60;;;4.10;99.90;;;;;;5075363;28;20449;-61
2022/02/03 06:27:56;;;;;;;4.20;1.97;;;4.10;99.90;;;;;;5075220;28;20450;-58
2022/02/03 06:30:23;;;;;;;12.03;2.40;;;4.20;99.90;;;;;;5075100;28;20528;-59
2022/02/03 06:32:50;;;;;;;4.40;1.80;;;4.20;99.90;;;;;;5075446;28;20466;-61
2022/02/03 06:35:19;;;;;;;6.37;2.93;;;4.40;99.90;;;;;;5075433;28;20451;-59
2022/02/03 06:37:47;;;;;;;2.23;1.60;;;4.30;99.90;;;;;;5075111;28;20455;-58
2022/02/03 06:40:14;;;;;;;12.80;2.20;;;4.30;99.90;;;;;;5075001;28;20852;-61
2022/02/03 06:42:42;;;;;;;2.53;1.93;;;4.30;99.90;;;;;;5075055;28;20490;-61
2022/02/03 06:45:14;;;;;;;5.27;1.87;;;4.30;99.90;;;;;;5075076;28;20435;-62
2022/02/03 06:47:50;;;;;;;6.53;2.10;;;4.30;99.90;;;;;;5075335;28;20822;-60
2022/02/03 06:50:22;;;;;;;9.63;3.80;;;4.30;99.90;;;;;;5075074;28;20470;-61
2022/02/03 06:52:54;;;;;;;11.00;3.37;;;4.30;99.90;;;;;;5075023;28;20439;-63
2022/02/03 06:55:28;;;;;;;8.87;3.90;;;4.20;99.90;;;;;;5074888;28;20774;-58
2022/02/03 06:57:59;;;;;;;4.73;2.30;;;4.30;99.90;;;;;;5074893;28;20435;-64
2022/02/03 07:00:30;;;;;;;2.83;2.00;;;4.30;99.90;;;;;;5075368;28;20439;-62
2022/02/03 07:02:59;;;;;;;9.10;2.77;;;4.20;99.90;;;;;;5074866;28;20527;-61
2022/02/03 07:05:27;;;;;;;3.30;1.73;;;4.20;99.90;;;;;;5074822;28;20439;-61
2022/02/03 07:07:55;;;;;;;13.30;2.90;;;4.30;99.90;;;;;;5074518;28;20470;-61
2022/02/03 07:10:22;;;;;;;7.33;1.97;;;4.30;99.90;;;;;;5074876;28;20506;-62
2022/02/03 07:12:49;;;;;;;27.70;3.33;;;4.30;99.90;;;;;;5074962;28;20446;-60
2022/02/03 07:15:15;;;;;;;6.70;2.23;;;4.30;99.90;;;;;;5074827;28;20463;-59
2022/02/03 07:17:42;;;;;;;13.53;2.10;;;4.30;99.90;;;;;;5075854;28;20455;-56
2022/02/03 07:20:13;;;;;;;5.87;1.37;;;4.30;99.90;;;;;;5078607;28;20442;-60
2022/02/03 07:22:42;;;;;;;3.10;1.93;;;4.40;99.90;;;;;;5078564;28;20439;-57
2022/02/03 07:25:10;;;;;;;7.07;2.00;;;4.40;99.90;;;;;;5078759;28;20494;-56
2022/02/03 07:27:37;;;;;;;11.30;2.93;;;4.40;99.90;;;;;;5079363;28;20453;-61
2022/02/03 07:30:04;;;;;;;6.43;2.03;;;4.40;99.90;;;;;;5077935;28;20474;-59
2022/02/03 07:32:31;;;;;;;12.03;2.43;;;4.30;99.90;;;;;;5078494;28;20451;-60
2022/02/03 07:34:58;;;;;;;4.73;2.47;;;4.40;99.90;;;;;;5078966;28;20447;-59
2022/02/03 07:37:27;;;;;;;6.50;2.57;;;4.40;99.90;;;;;;5082681;28;20580;-60
2022/02/03 07:39:55;;;;;;;16.53;2.53;;;4.40;99.90;;;;;;5082944;28;20473;-55
2022/02/03 07:42:22;;;;;;;6.70;2.13;;;4.50;99.90;;;;;;5082794;28;20799;-61
2022/02/03 07:44:49;;;;;;;10.20;2.53;;;4.50;99.90;;;;;;5082715;28;20427;-58
2022/02/03 07:47:16;;;;;;;14.97;2.73;;;4.50;99.90;;;;;;5082699;28;20443;-57
2022/02/03 07:49:43;;;;;;;5.60;2.43;;;4.60;99.90;;;;;;5082574;28;20482;-58
2022/02/03 07:52:11;;;;;;;11.27;3.50;;;4.60;99.90;;;;;;5082434;28;20709;-58
2022/02/03 07:54:38;;;;;;;12.30;6.23;;;4.70;99.90;;;;;;5082380;28;20481;-58
2022/02/03 07:57:07;;;;;;;8.77;3.00;;;4.80;99.90;;;;;;5082114;28;20479;-57
2022/02/03 07:59:35;;;;;;;17.30;2.80;;;4.80;99.90;;;;;;5082722;28;20481;-58
2022/02/03 08:02:01;;;;;;;8.67;2.30;;;4.80;99.90;;;;;;5082786;28;20942;-59
2022/02/03 08:04:31;;;;;;;23.87;2.30;;;4.80;99.90;;;;;;5082884;28;20443;-56
2022/02/03 08:07:00;;;;;;;8.40;2.23;;;4.80;99.90;;;;;;5083196;28;20543;-58
2022/02/03 08:09:34;;;;;;;12.37;2.70;;;4.80;99.90;;;;;;5083140;28;20484;-61
2022/02/03 08:12:06;;;;;;;13.33;2.00;;;4.80;99.90;;;;;;5083801;28;20466;-60
2022/02/03 08:14:38;;;;;;;13.93;2.87;;;4.80;99.90;;;;;;5084672;28;20483;-58
2022/02/03 08:17:08;;;;;;;8.43;3.27;;;4.80;99.90;;;;;;5087655;28;20425;-58
2022/02/03 08:19:44;;;;;;;7.83;2.83;;;4.90;99.90;;;;;;5087659;28;20424;-56
2022/02/03 08:22:15;;;;;;;13.10;2.47;;;4.90;99.90;;;;;;5086793;28;20435;-61
2022/02/03 08:24:45;;;;;;;7.17;2.30;;;5.00;99.90;;;;;;5086558;28;20536;-60
2022/02/03 08:27:37;;;;;;;8.63;2.50;;;5.10;99.90;;;;;;5087116;28;20464;-58
2022/02/03 08:32:55;;;;;;;4.63;2.70;;;5.30;99.90;;;;;;5083000;28;20919;-60
2022/02/03 08:35:34;;;;;;;7.30;2.23;;;5.40;99.90;;;;;;5082303;28;20529;-60
2022/02/03 08:38:07;;;;;;;5.27;2.60;;;5.50;99.90;;;;;;5084730;28;20445;-59
2022/02/03 08:40:45;;;;;;;6.83;3.20;;;5.60;99.90;;;;;;5085404;28;20471;-59
2022/02/03 08:43:13;;;;;;;6.77;3.30;;;5.70;99.90;;;;;;5084695;28;20523;-62
2022/02/03 08:45:42;;;;;;;9.10;3.10;;;5.80;99.90;;;;;;5084383;28;20502;-56
2022/02/03 08:48:09;;;;;;;3.23;2.07;;;5.90;99.90;;;;;;5065514;28;20499;-59
2022/02/03 08:50:36;;;;;;;15.93;2.67;;;5.90;99.90;;;;;;5064611;28;20482;-60
2022/02/03 08:53:08;;;;;;;7.60;2.87;;;6.00;99.90;;;;;;5063901;28;20491;-57
2022/02/03 08:55:43;;;;;;;8.13;2.50;;;6.00;99.90;;;;;;5068741;28;20444;-58
2022/02/03 09:37:32;;;;;;;9.37;3.17;;;6.50;99.90;;;;;;5081421;28;20440;-59
2022/02/03 09:40:22;;;;;;;5.83;2.10;;;6.60;99.90;;;;;;5082414;28;20479;-60
2022/02/03 09:54:26;;;;;;;11.90;3.33;;;6.80;99.90;;;;;;5081295;28;20501;-61
2022/02/03 09:57:30;;;;;;;3.43;2.23;;;6.80;99.90;;;;;;5081407;28;20433;-56
2022/02/03 10:00:37;;;;;;;13.03;3.20;;;6.80;99.90;;;;;;5081824;28;20429;-57
2022/02/03 10:03:10;;;;;;;14.67;2.57;;;6.80;99.90;;;;;;5082532;28;20526;-60
2022/02/03 10:05:41;;;;;;;9.17;3.17;;;6.90;99.90;;;;;;5083888;28;20499;-60
2022/02/03 10:08:15;;;;;;;7.53;2.47;;;6.90;99.90;;;;;;5083325;28;20486;-56
2022/02/03 10:10:42;;;;;;;9.63;3.40;;;7.00;99.90;;;;;;5084332;28;20468;-60
2022/02/03 10:13:16;;;;;;;4.77;2.70;;;7.00;99.90;;;;;;5081812;28;20458;-59
2022/02/03 10:15:43;;;;;;;10.10;3.67;;;7.00;99.90;;;;;;5080672;28;20469;-55
2022/02/03 10:18:21;;;;;;;14.93;3.10;;;7.10;99.90;;;;;;5081204;28;20492;-61
2022/02/03 10:20:49;;;;;;;5.37;1.93;;;7.10;99.90;;;;;;5080678;28;20532;-61
2022/02/03 10:23:22;;;;;;;12.33;2.80;;;7.10;99.90;;;;;;5080198;28;20455;-57
2022/02/03 10:25:53;;;;;;;9.23;2.73;;;7.10;99.90;;;;;;5080839;28;20816;-56
2022/02/03 10:28:20;;;;;;;6.47;2.90;;;7.10;99.90;;;;;;5080833;28;20446;-59
2022/02/03 10:30:49;;;;;;;7.13;3.40;;;7.10;99.90;;;;;;5080632;28;20558;-60
2022/02/03 10:33:17;;;;;;;13.93;3.00;;;7.10;99.90;;;;;;5080865;28;20521;-56
2022/02/03 10:35:48;;;;;;;11.53;3.80;;;7.10;99.90;;;;;;5080088;28;20472;-59
2022/02/03 10:44:11;;;;;;;8.77;4.43;;;7.10;99.90;;;;;;5079889;28;20526;-59
2022/02/03 10:49:59;;;;;;;7.23;5.10;;;7.10;99.90;;;;;;5079402;28;20456;-55
2022/02/03 11:06:50;;;;;;;7.33;3.57;;;7.10;99.90;;;;;;5029083;28;20445;-61
2022/02/03 11:09:24;;;;;;;7.17;3.70;;;7.10;99.90;;;;;;5082814;28;20438;-61
2022/02/03 11:11:56;;;;;;;5.00;3.27;;;7.10;99.90;;;;;;5080811;28;20487;-61
2022/02/03 11:14:24;;;;;;;8.90;4.03;;;7.10;99.90;;;;;;5079854;28;20463;-57
2022/02/03 11:16:52;;;;;;;10.90;3.00;;;7.10;99.90;;;;;;5076578;28;20511;-59
2022/02/03 11:19:23;;;;;;;6.80;3.33;;;7.20;99.90;;;;;;5079304;28;20435;-54
2022/02/03 11:21:57;;;;;;;6.23;2.87;;;7.20;99.90;;;;;;5076238;28;20472;-59
2022/02/03 11:24:28;;;;;;;8.60;3.17;;;7.20;99.90;;;;;;5078912;28;20444;-60
2022/02/03 11:27:12;;;;;;;7.33;3.93;;;7.20;99.90;;;;;;5077585;28;20455;-60
2022/02/03 11:35:51;;;;;;;10.10;3.77;;;7.20;99.90;;;;;;5072406;28;20908;-60
2022/02/03 11:41:49;;;;;;;12.07;4.50;;;7.20;99.90;;;;;;5060467;28;20760;-59
2022/02/03 11:44:49;;;;;;;5.20;4.47;;;7.10;99.90;;;;;;5077429;28;20429;-59
2022/02/03 11:50:26;;;;;;;10.07;5.40;;;7.00;99.90;;;;;;5081557;28;20421;-58
2022/02/03 11:53:17;;;;;;;7.27;4.37;;;6.90;99.90;;;;;;5085722;28;20514;-58
2022/02/03 11:58:39;;;;;;;7.63;3.47;;;6.90;99.90;;;;;;5087274;28;20447;-62
2022/02/03 12:07:53;;;;;;;6.67;4.20;;;6.90;99.90;;;;;;5093719;27;20588;-57
2022/02/03 12:10:57;;;;;;;8.37;5.13;;;6.90;99.90;;;;;;5094548;27;20512;-60
2022/02/03 12:13:49;;;;;;;12.40;5.93;;;7.00;99.90;;;;;;5094760;27;20467;-60
2022/02/03 12:16:24;;;;;;;6.57;4.50;;;7.00;99.90;;;;;;5093307;28;20451;-60
2022/02/03 12:19:10;;;;;;;6.23;3.77;;;7.00;99.90;;;;;;5094604;27;20476;-59
2022/02/03 12:21:44;;;;;;;6.43;3.93;;;7.10;99.90;;;;;;5095752;27;20452;-54
2022/02/03 12:24:23;;;;;;;7.90;4.90;;;7.10;99.90;;;;;;5097088;27;20472;-63
2022/02/03 12:26:57;;;;;;;4.73;3.60;;;7.10;99.90;;;;;;5098847;27;20503;-61
2022/02/03 12:29:37;;;;;;;6.70;3.90;;;7.10;99.90;;;;;;5093920;27;20486;-59
2022/02/03 12:32:18;;;;;;;10.57;4.87;;;7.00;99.90;;;;;;5093845;27;20503;-59
2022/02/03 12:38:00;;;;;;;6.20;4.17;;;7.10;99.90;;;;;;5093797;28;20431;-62
2022/02/03 12:40:42;;;;;;;6.63;3.87;;;7.10;99.90;;;;;;5094226;27;20447;-60
2022/02/03 12:43:28;;;;;;;4.03;3.43;;;7.10;99.90;;;;;;5094125;27;20486;-58
2022/02/03 12:45:55;;;;;;;5.27;4.03;;;7.10;99.90;;;;;;5094055;27;20845;-60
2022/02/03 12:48:24;;;;;;;6.33;4.33;;;7.20;99.90;;;;;;5093151;27;20453;-60
2022/02/03 12:50:53;;;;;;;8.33;5.30;;;7.10;99.90;;;;;;5092951;27;20558;-57
2022/02/03 12:53:20;;;;;;;9.23;4.97;;;7.20;99.90;;;;;;5094868;27;20498;-60
2022/02/03 12:55:51;;;;;;;6.60;4.63;;;7.20;99.90;;;;;;5097341;27;20569;-60
2022/02/03 12:58:21;;;;;;;6.03;4.17;;;7.20;99.90;;;;;;5094327;27;20461;-60
2022/02/03 13:00:54;;;;;;;5.70;4.60;;;7.30;99.90;;;;;;5101804;27;20438;-58
2022/02/03 13:03:30;;;;;;;6.80;4.30;;;7.30;99.90;;;;;;5108350;27;20425;-56
2022/02/03 13:06:01;;;;;;;6.53;4.40;;;7.40;99.90;;;;;;5107563;27;20547;-58
2022/02/03 13:08:37;;;;;;;7.00;4.10;;;7.30;99.90;;;;;;5107916;27;20445;-55
2022/02/03 13:11:12;;;;;;;7.40;4.37;;;7.40;99.90;;;;;;5107996;27;20428;-54
2022/02/03 13:13:52;;;;;;;8.60;4.87;;;7.40;99.90;;;;;;5107978;27;20539;-60
2022/02/03 13:16:19;;;;;;;6.10;4.53;;;7.40;99.90;;;;;;5107204;27;20460;-56
2022/02/03 13:19:01;;;;;;;6.67;4.00;;;7.40;99.90;;;;;;5094848;28;20426;-55
2022/02/03 13:21:38;;;;;;;8.07;4.47;;;7.40;99.90;;;;;;5093992;27;20474;-58
2022/02/03 13:24:22;;;;;;;9.53;5.30;;;7.40;99.90;;;;;;5094485;27;20458;-55
2022/02/03 13:26:55;;;;;;;6.33;3.43;;;7.40;99.90;;;;;;5094787;27;20485;-53
2022/02/03 13:29:29;;;;;;;8.67;5.60;;;7.40;99.90;;;;;;5094700;27;20470;-60
2022/02/03 13:32:02;;;;;;;10.57;6.03;;;7.40;99.90;;;;;;5094718;27;20470;-60
2022/02/03 13:34:34;;;;;;;9.53;4.40;;;7.40;99.90;;;;;;5094330;27;20428;-60
2022/02/03 13:37:16;;;;;;;9.27;5.13;;;7.40;99.90;;;;;;5094262;27;20446;-54
2022/02/03 13:39:46;;;;;;;8.73;6.10;;;7.40;99.90;;;;;;5094532;27;20433;-60
2022/02/03 13:42:16;;;;;;;6.17;4.70;;;7.30;99.90;;;;;;5093900;27;20499;-57
2022/02/03 13:44:43;;;;;;;11.13;5.27;;;7.40;99.90;;;;;;5094286;27;20449;-63
2022/02/03 13:47:27;;;;;;;11.30;4.97;;;7.30;99.90;;;;;;5093968;28;20473;-57
2022/02/03 13:50:06;;;;;;;7.30;4.53;;;7.40;99.90;;;;;;5093226;27;20475;-55
2022/02/03 13:52:39;;;;;;;7.50;5.20;;;7.40;99.90;;;;;;5094167;27;20421;-59
2022/02/03 14:15:22;;;;;;;8.60;4.53;;;7.60;99.90;;;;;;5093209;28;20458;-59
2022/02/03 14:18:24;;;;;;;8.57;5.07;;;7.60;99.90;;;;;;5093797;28;20533;-60
2022/02/03 14:21:01;;;;;;;7.07;5.07;;;7.60;99.90;;;;;;5093367;28;20495;-56
2022/02/03 14:29:07;;;;;;;8.23;5.47;;;7.50;99.90;;;;;;5091333;28;20467;-57
2022/02/03 14:31:36;;;;;;;5.83;5.03;;;7.60;99.90;;;;;;5092615;27;20905;-54
2022/02/03 14:34:08;;;;;;;6.80;4.37;;;7.60;99.90;;;;;;5092223;27;20571;-56
2022/02/03 14:36:35;;;;;;;7.50;3.97;;;7.70;99.90;;;;;;5092877;28;20430;-61
2022/02/03 14:39:11;;;;;;;8.80;5.70;;;7.60;99.90;;;;;;5092199;28;20440;-58
2022/02/03 14:41:42;;;;;;;9.27;5.37;;;7.60;99.90;;;;;;5092567;27;20428;-58
2022/02/03 14:44:09;;;;;;;10.20;5.80;;;8.10;99.90;;;;;;5091845;28;20434;-59
2022/02/03 14:46:37;;;;;;;8.30;4.20;;;8.80;99.90;;;;;;5091463;28;20535;-59
2022/02/03 14:49:04;;;;;;;6.40;4.70;;;9.00;99.90;;;;;;5092343;28;20463;-56
2022/02/03 14:51:42;;;;;;;7.23;4.70;;;8.80;99.90;;;;;;5091619;27;20483;-55
2022/02/03 14:59:48;;;;;;;12.63;4.50;;;8.40;99.90;;;;;;5092202;28;20416;-60
2022/02/03 15:02:16;;;;;;;9.10;5.57;;;8.30;99.90;;;;;;5091032;28;20479;-57
2022/02/03 15:04:52;;;;;;;8.27;4.53;;;8.20;99.90;;;;;;5091166;28;20459;-59
2022/02/03 15:07:19;;;;;;;8.53;4.80;;;8.20;99.90;;;;;;5091571;28;20465;-59
2022/02/03 15:12:42;;;;;;;9.90;6.33;;;8.00;99.90;;;;;;5090679;28;20454;-57
2022/02/03 15:15:11;;;;;;;10.67;5.43;;;8.00;99.90;;;;;;5091274;28;20445;-52
2022/02/03 15:17:39;;;;;;;9.40;4.40;;;8.00;99.90;;;;;;5090951;28;20461;-59
2022/02/03 15:20:07;;;;;;;8.27;4.23;;;8.00;99.90;;;;;;5091336;28;20472;-55
2022/02/03 15:22:35;;;;;;;6.63;4.20;;;8.00;99.90;;;;;;5091123;28;20443;-59
2022/02/03 15:25:02;;;;;;;9.53;4.10;;;7.90;99.90;;;;;;5090940;28;20465;-61
2022/02/03 15:27:30;;;;;;;7.00;4.40;;;7.90;99.90;;;;;;5090915;27;20480;-61
2022/02/03 15:30:01;;;;;;;5.83;3.70;;;7.90;99.90;;;;;;5091664;28;20446;-59
2022/02/03 15:32:27;;;;;;;6.40;4.30;;;7.90;99.90;;;;;;5091755;28;20411;-57
2022/02/03 15:34:56;;;;;;;6.63;4.83;;;7.80;99.90;;;;;;5090738;28;20448;-56
2022/02/03 15:37:27;;;;;;;6.53;4.47;;;7.90;99.90;;;;;;5091312;28;20462;-53
2022/02/03 15:39:59;;;;;;;6.80;4.40;;;7.90;99.90;;;;;;5090700;28;20436;-57
2022/02/03 15:42:30;;;;;;;10.07;4.57;;;7.90;99.90;;;;;;5090482;27;20534;-59
2022/02/03 15:44:59;;;;;;;6.57;4.37;;;7.90;99.90;;;;;;5089012;27;20475;-59
2022/02/03 15:47:35;;;;;;;7.37;4.97;;;7.90;99.90;;;;;;5083505;28;20494;-61
2022/02/03 15:50:51;;;;;;;8.50;4.47;;;7.90;99.90;;;;;;5074081;27;20484;-61
2022/02/03 16:04:21;;;;;;;6.43;4.07;;;8.00;99.90;;;;;;5061055;27;20473;-57
2022/02/03 16:17:46;;;;;;;13.00;4.83;;;8.00;99.90;;;;;;5073682;28;20448;-60
2022/02/03 16:20:16;;;;;;;7.53;4.70;;;8.00;99.90;;;;;;5073335;27;20506;-61
2022/02/03 16:22:52;;;;;;;6.73;4.33;;;8.00;99.90;;;;;;5074961;27;20479;-59
2022/02/03 16:25:41;;;;;;;10.30;4.60;;;8.00;99.90;;;;;;5077038;27;20800;-60
2022/02/03 16:52:47;;;;;;;8.23;5.20;;;8.10;99.90;;;;;;5075995;28;20520;-59
2022/02/03 16:55:20;;;;;;;10.37;5.57;;;8.20;99.90;;;;;;5077308;27;20451;-58
2022/02/03 16:57:48;;;;;;;5.50;4.30;;;8.10;99.90;;;;;;5077002;27;20440;-60
2022/02/03 17:00:17;;;;;;;10.23;6.20;;;8.10;99.90;;;;;;5077042;27;20451;-60
2022/02/03 17:02:44;;;;;;;7.63;5.50;;;8.10;99.90;;;;;;5076801;27;20478;-59
2022/02/03 17:05:12;;;;;;;8.73;5.10;;;8.10;99.90;;;;;;5076061;28;20473;-59
2022/02/03 17:07:39;;;;;;;8.00;5.40;;;8.10;99.90;;;;;;5076751;27;20486;-57
2022/02/03 17:10:07;;;;;;;6.30;4.90;;;8.20;99.90;;;;;;5077027;28;20473;-61
2022/02/03 17:12:35;;;;;;;12.20;5.97;;;8.20;99.90;;;;;;5077410;28;20423;-59
2022/02/03 17:15:02;;;;;;;8.40;5.63;;;8.20;99.90;;;;;;5076203;28;20529;-61
2022/02/03 17:17:30;;;;;;;13.33;6.30;;;8.20;99.90;;;;;;5076530;28;20541;-59
2022/02/03 17:19:57;;;;;;;11.80;5.63;;;8.20;99.90;;;;;;5076620;27;20462;-59
2022/02/03 17:22:29;;;;;;;10.40;5.70;;;8.20;99.90;;;;;;5076813;28;20480;-64
2022/02/03 17:25:08;;;;;;;8.63;5.67;;;8.20;99.90;;;;;;5076856;27;20435;-61
2022/02/03 17:27:42;;;;;;;9.77;6.30;;;8.20;99.90;;;;;;5077426;27;20466;-58
2022/02/03 17:30:14;;;;;;;12.17;7.50;;;8.20;99.90;;;;;;5077410;28;20442;-61
2022/02/03 18:08:56;;;;;;;16.03;7.43;;;8.20;99.90;;;;;;5095494;28;20411;-59
2022/02/03 18:11:32;;;;;;;14.07;6.07;;;8.30;99.90;;;;;;5077076;28;20719;-61
2022/02/03 18:30:46;;;;;;;11.40;5.00;;;8.30;99.90;;;;;;5094926;28;20505;-56
2022/02/03 18:36:07;;;;;;;8.03;5.67;;;8.30;99.90;;;;;;5052160;28;20519;-54
2022/02/03 18:52:24;;;;;;;13.30;8.17;;;8.30;99.90;;;;;;5095140;28;20989;-57
2022/02/03 18:55:08;;;;;;;8.23;5.90;;;8.30;99.90;;;;;;5094876;28;20874;-58
2022/02/03 18:57:47;;;;;;;21.70;8.03;;;8.30;99.90;;;;;;5096504;28;20465;-62
2022/02/03 19:00:49;;;;;;;11.93;7.67;;;8.30;99.90;;;;;;5095825;28;20478;-60
2022/02/03 19:15:03;;;;;;;11.00;6.10;;;8.50;99.90;;;;;;5092403;28;20763;-60
2022/02/03 19:28:55;;;;;;;11.73;7.10;;;8.40;99.90;;;;;;5094723;28;20511;-59
2022/02/03 20:04:44;;;;;;;23.43;8.33;;;8.10;99.90;;;;;;5078657;28;20958;-63
2022/02/03 20:07:19;;;;;;;15.43;8.20;;;8.20;99.90;;;;;;5095479;28;20470;-60
2022/02/03 20:12:30;;;;;;;15.60;8.50;;;8.20;99.90;;;;;;5094194;28;20978;-57
2022/02/03 20:14:58;;;;;;;14.40;7.80;;;8.20;99.90;;;;;;5094552;28;20456;-60
2022/02/03 20:17:27;;;;;;;14.70;8.93;;;8.20;99.90;;;;;;5094633;28;20944;-59
2022/02/03 20:19:54;;;;;;;15.53;7.80;;;8.20;99.90;;;;;;5095129;28;20447;-59
2022/02/03 20:22:27;;;;;;;16.63;8.40;;;8.20;99.90;;;;;;5094608;28;20464;-61
2022/02/03 20:24:53;;;;;;;13.60;8.13;;;8.20;99.90;;;;;;5094466;28;20469;-61
2022/02/03 20:27:20;;;;;;;14.70;9.10;;;8.20;99.90;;;;;;5095932;28;20527;-60
2022/02/03 20:29:49;;;;;;;20.27;11.20;;;8.20;99.90;;;;;;5099425;28;20465;-56
2022/02/03 20:32:17;;;;;;;15.67;8.30;;;8.20;99.90;;;;;;5098703;28;20601;-61
2022/02/03 20:34:44;;;;;;;15.50;8.70;;;8.20;99.90;;;;;;5098617;28;20571;-57
2022/02/03 20:37:11;;;;;;;12.07;7.77;;;8.30;99.90;;;;;;5098463;28;20442;-60
2022/02/03 20:39:38;;;;;;;17.20;9.17;;;8.30;99.90;;;;;;5098525;28;20460;-60
2022/02/03 20:42:05;;;;;;;13.60;7.83;;;8.30;99.90;;;;;;5098484;28;20502;-60
2022/02/03 20:44:32;;;;;;;13.57;7.63;;;8.30;99.90;;;;;;5098214;28;20507;-61
2022/02/03 20:47:00;;;;;;;12.43;7.80;;;8.30;99.90;;;;;;5098049;28;21163;-60
2022/02/03 20:49:27;;;;;;;15.90;10.20;;;8.30;99.90;;;;;;5098088;28;20921;-60
2022/02/03 20:51:55;;;;;;;15.70;8.77;;;8.30;99.90;;;;;;5098908;28;20532;-61
2022/02/03 20:54:21;;;;;;;13.30;8.60;;;8.30;99.90;;;;;;5098352;28;20457;-56
2022/02/03 20:56:48;;;;;;;17.80;9.40;;;8.30;99.90;;;;;;5097866;28;20451;-59
2022/02/03 20:59:15;;;;;;;14.47;8.53;;;8.30;99.90;;;;;;5098042;28;20468;-60
2022/02/03 21:01:48;;;;;;;16.57;8.97;;;8.30;99.90;;;;;;5097755;28;20903;-60
2022/02/03 21:04:29;;;;;;;11.77;8.33;;;8.30;99.90;;;;;;5098136;28;20433;-61
2022/02/03 21:06:56;;;;;;;14.40;8.40;;;8.30;99.90;;;;;;5097748;28;20795;-64
2022/02/03 21:09:22;;;;;;;13.43;9.50;;;8.30;99.90;;;;;;5097578;28;20946;-60
2022/02/03 21:11:49;;;;;;;15.53;9.40;;;8.30;99.90;;;;;;5097910;28;20477;-55
2022/02/03 21:14:16;;;;;;;12.10;6.77;;;8.30;99.90;;;;;;5098421;28;20534;-62
2022/02/03 21:16:43;;;;;;;14.00;8.30;;;8.30;99.90;;;;;;5098174;28;20525;-58
2022/02/03 21:19:11;;;;;;;13.33;8.40;;;8.20;99.90;;;;;;5097512;28;20461;-57
2022/02/03 21:21:39;;;;;;;16.47;7.30;;;8.20;99.90;;;;;;5097770;28;20587;-57
2022/02/03 21:24:07;;;;;;;12.50;6.67;;;8.40;99.90;;;;;;5097437;28;20480;-62
2022/02/03 21:26:38;;;;;;;11.90;7.47;;;8.50;99.90;;;;;;5097237;28;20514;-57
2022/02/03 21:29:05;;;;;;;14.53;8.77;;;8.40;99.90;;;;;;5097469;28;20542;-59
2022/02/03 21:31:32;;;;;;;14.17;7.40;;;8.30;99.90;;;;;;5097209;28;20739;-59
2022/02/03 21:33:59;;;;;;;11.43;6.63;;;8.30;99.90;;;;;;5097310;28;20477;-59
2022/02/03 21:36:33;;;;;;;16.10;8.30;;;8.30;99.90;;;;;;5097345;28;20904;-62
2022/02/03 21:39:01;;;;;;;11.63;7.10;;;8.20;99.90;;;;;;5097570;28;20891;-58
2022/02/03 21:41:28;;;;;;;11.57;7.13;;;8.20;99.90;;;;;;5097093;28;20462;-59